sensor_id;sensor_type;location;lat;lon;timestamp;pressure;altitude;pressure_sealevel;temperature;humidity
20942;BME280;10630;53.734;10.282;2023-01-26T00:01:08;102032.47;;;5.83;64.35
20942;BME280;10630;53.734;10.282;2023-01-26T00:03:35;102037.28;;;5.91;65.09
20942;BME280;10630;53.734;10.282;2023-01-26T00:06:03;102039.00;;;6.05;64.52
20942;BME280;10630;53.734;10.282;2023-01-26T00:08:29;102048.13;;;5.74;64.62
20942;BME280;10630;53.734;10.282;2023-01-26T00:10:56;102028.09;;;5.97;64.61
20942;BME280;10630;53.734;10.282;2023-01-26T00:13:23;102027.69;;;6.03;64.79
20942;BME280;10630;53.734;10.282;2023-01-26T00:15:49;102026.25;;;5.84;64.23
20942;BME280;10630;53.734;10.282;2023-01-26T00:18:16;102029.59;;;5.48;65.39
20942;BME280;10630;53.734;10.282;2023-01-26T00:20:43;102022.69;;;5.98;65.17
20942;BME280;10630;53.734;10.282;2023-01-26T00:23:10;102027.84;;;5.74;65.61
20942;BME280;10630;53.734;10.282;2023-01-26T00:25:37;102019.28;;;5.70;65.58
20942;BME280;10630;53.734;10.282;2023-01-26T00:28:05;102023.00;;;5.94;65.54
20942;BME280;10630;53.734;10.282;2023-01-26T00:30:31;102014.75;;;5.98;65.14
20942;BME280;10630;53.734;10.282;2023-01-26T00:32:58;102008.94;;;5.93;64.83
20942;BME280;10630;53.734;10.282;2023-01-26T00:35:25;102008.63;;;5.85;64.93
20942;BME280;10630;53.734;10.282;2023-01-26T00:37:51;102002.03;;;5.65;65.12
20942;BME280;10630;53.734;10.282;2023-01-26T00:40:19;102001.84;;;5.81;65.93
20942;BME280;10630;53.734;10.282;2023-01-26T00:42:46;101995.09;;;5.90;67.05
20942;BME280;10630;53.734;10.282;2023-01-26T00:45:13;101990.88;;;6.00;65.45
20942;BME280;10630;53.734;10.282;2023-01-26T00:47:39;101989.72;;;6.17;64.82
20942;BME280;10630;53.734;10.282;2023-01-26T00:50:07;101990.44;;;6.06;64.00
20942;BME280;10630;53.734;10.282;2023-01-26T00:52:35;101991.94;;;6.10;64.53
20942;BME280;10630;53.734;10.282;2023-01-26T00:55:02;101989.78;;;5.77;65.52
20942;BME280;10630;53.734;10.282;2023-01-26T00:57:28;101978.84;;;6.09;65.10
20942;BME280;10630;53.734;10.282;2023-01-26T00:59:55;101973.63;;;5.81;64.74
20942;BME280;10630;53.734;10.282;2023-01-26T01:02:22;101978.22;;;5.52;65.74
20942;BME280;10630;53.734;10.282;2023-01-26T01:04:48;101973.72;;;5.80;65.81
20942;BME280;10630;53.734;10.282;2023-01-26T01:07:14;101975.22;;;5.97;65.51
20942;BME280;10630;53.734;10.282;2023-01-26T01:09:41;101975.13;;;6.24;64.80
20942;BME280;10630;53.734;10.282;2023-01-26T01:12:07;101966.78;;;6.05;64.31
20942;BME280;10630;53.734;10.282;2023-01-26T01:14:33;101976.09;;;6.23;64.33
20942;BME280;10630;53.734;10.282;2023-01-26T01:17:00;101973.94;;;5.77;65.32
20942;BME280;10630;53.734;10.282;2023-01-26T01:19:27;101975.47;;;5.53;66.50
20942;BME280;10630;53.734;10.282;2023-01-26T01:21:53;101970.09;;;5.68;66.72
20942;BME280;10630;53.734;10.282;2023-01-26T01:24:20;101966.34;;;6.11;65.73
20942;BME280;10630;53.734;10.282;2023-01-26T01:26:47;101962.31;;;6.31;64.15
20942;BME280;10630;53.734;10.282;2023-01-26T01:29:14;101973.56;;;6.09;64.66
20942;BME280;10630;53.734;10.282;2023-01-26T01:31:40;101970.84;;;5.70;65.63
20942;BME280;10630;53.734;10.282;2023-01-26T01:34:08;101970.34;;;5.78;66.75
20942;BME280;10630;53.734;10.282;2023-01-26T01:36:35;101970.44;;;5.89;67.08
20942;BME280;10630;53.734;10.282;2023-01-26T01:39:01;101964.00;;;6.19;65.60
20942;BME280;10630;53.734;10.282;2023-01-26T01:41:28;101964.25;;;6.03;65.79
20942;BME280;10630;53.734;10.282;2023-01-26T01:46:40;101957.34;;;6.63;63.72
20942;BME280;10630;53.734;10.282;2023-01-26T01:51:37;101951.94;;;5.89;63.48
20942;BME280;10630;53.734;10.282;2023-01-26T01:54:09;101949.84;;;6.20;64.94
20942;BME280;10630;53.734;10.282;2023-01-26T01:56:37;101949.41;;;6.26;64.82
20942;BME280;10630;53.734;10.282;2023-01-26T01:59:05;101958.22;;;6.14;65.22
20942;BME280;10630;53.734;10.282;2023-01-26T02:01:33;101954.28;;;5.94;65.59
20942;BME280;10630;53.734;10.282;2023-01-26T02:04:00;101956.63;;;6.24;65.51
20942;BME280;10630;53.734;10.282;2023-01-26T02:06:29;101954.06;;;6.23;64.63
20942;BME280;10630;53.734;10.282;2023-01-26T02:08:59;101954.50;;;6.29;64.65
20942;BME280;10630;53.734;10.282;2023-01-26T02:13:52;101951.97;;;6.15;65.37
20942;BME280;10630;53.734;10.282;2023-01-26T02:16:19;101956.09;;;6.19;65.76
20942;BME280;10630;53.734;10.282;2023-01-26T02:18:46;101955.34;;;6.17;64.94
20942;BME280;10630;53.734;10.282;2023-01-26T02:21:14;101958.19;;;6.40;65.41
20942;BME280;10630;53.734;10.282;2023-01-26T02:26:25;101950.47;;;5.85;66.15
20942;BME280;10630;53.734;10.282;2023-01-26T02:28:52;101943.44;;;5.45;66.10
20942;BME280;10630;53.734;10.282;2023-01-26T02:31:19;101939.25;;;5.94;67.15
20942;BME280;10630;53.734;10.282;2023-01-26T02:33:48;101939.47;;;6.17;66.55
20942;BME280;10630;53.734;10.282;2023-01-26T02:36:22;101936.63;;;6.20;66.00
20942;BME280;10630;53.734;10.282;2023-01-26T02:38:50;101935.47;;;6.24;66.17
20942;BME280;10630;53.734;10.282;2023-01-26T02:41:21;101925.69;;;6.38;65.96
20942;BME280;10630;53.734;10.282;2023-01-26T02:44:07;101928.41;;;6.49;65.60
20942;BME280;10630;53.734;10.282;2023-01-26T02:46:34;101918.75;;;6.24;65.61
20942;BME280;10630;53.734;10.282;2023-01-26T02:49:01;101921.97;;;6.77;64.42
20942;BME280;10630;53.734;10.282;2023-01-26T02:51:46;101926.50;;;6.51;64.65
20942;BME280;10630;53.734;10.282;2023-01-26T02:54:12;101920.59;;;6.72;64.39
20942;BME280;10630;53.734;10.282;2023-01-26T02:56:59;101920.44;;;6.25;64.35
20942;BME280;10630;53.734;10.282;2023-01-26T02:59:25;101913.44;;;6.37;64.92
20942;BME280;10630;53.734;10.282;2023-01-26T03:01:52;101912.50;;;6.62;64.40
20942;BME280;10630;53.734;10.282;2023-01-26T03:04:20;101909.06;;;6.11;65.09
20942;BME280;10630;53.734;10.282;2023-01-26T03:06:47;101914.72;;;6.18;66.34
20942;BME280;10630;53.734;10.282;2023-01-26T03:09:13;101910.75;;;6.74;64.82
20942;BME280;10630;53.734;10.282;2023-01-26T03:11:40;101913.38;;;6.62;64.10
20942;BME280;10630;53.734;10.282;2023-01-26T03:14:10;101912.06;;;6.31;65.18
20942;BME280;10630;53.734;10.282;2023-01-26T03:16:37;101917.38;;;6.55;65.12
20942;BME280;10630;53.734;10.282;2023-01-26T03:19:04;101912.25;;;6.41;65.68
20942;BME280;10630;53.734;10.282;2023-01-26T03:21:49;101903.13;;;6.21;65.84
20942;BME280;10630;53.734;10.282;2023-01-26T03:24:54;101909.66;;;5.89;66.05
20942;BME280;10630;53.734;10.282;2023-01-26T03:27:50;101899.25;;;6.38;66.14
20942;BME280;10630;53.734;10.282;2023-01-26T03:30:17;101897.75;;;6.46;65.14
20942;BME280;10630;53.734;10.282;2023-01-26T03:32:44;101889.81;;;6.71;64.76
20942;BME280;10630;53.734;10.282;2023-01-26T03:35:10;101891.50;;;6.47;65.01
20942;BME280;10630;53.734;10.282;2023-01-26T03:37:41;101893.50;;;6.20;65.06
20942;BME280;10630;53.734;10.282;2023-01-26T03:40:10;101894.66;;;5.51;67.46
20942;BME280;10630;53.734;10.282;2023-01-26T03:42:55;101895.63;;;6.01;66.81
20942;BME280;10630;53.734;10.282;2023-01-26T03:45:40;101892.06;;;6.40;66.25
20942;BME280;10630;53.734;10.282;2023-01-26T03:48:25;101893.47;;;6.57;65.12
20942;BME280;10630;53.734;10.282;2023-01-26T03:51:10;101882.28;;;6.53;64.57
20942;BME280;10630;53.734;10.282;2023-01-26T03:53:55;101880.94;;;6.10;66.36
20942;BME280;10630;53.734;10.282;2023-01-26T03:56:40;101870.78;;;6.04;67.44
20942;BME280;10630;53.734;10.282;2023-01-26T03:59:07;101871.03;;;6.25;66.54
20942;BME280;10630;53.734;10.282;2023-01-26T04:01:34;101867.13;;;6.55;65.78
20942;BME280;10630;53.734;10.282;2023-01-26T04:04:02;101878.34;;;6.59;65.27
20942;BME280;10630;53.734;10.282;2023-01-26T04:06:47;101880.50;;;6.41;64.62
20942;BME280;10630;53.734;10.282;2023-01-26T04:09:32;101875.22;;;6.41;65.70
20942;BME280;10630;53.734;10.282;2023-01-26T04:11:59;101881.81;;;6.59;65.19
20942;BME280;10630;53.734;10.282;2023-01-26T04:14:25;101881.66;;;6.74;64.73
20942;BME280;10630;53.734;10.282;2023-01-26T04:17:16;101890.31;;;6.14;65.60
20942;BME280;10630;53.734;10.282;2023-01-26T04:20:01;101886.19;;;6.23;67.03
20942;BME280;10630;53.734;10.282;2023-01-26T04:22:45;101884.94;;;6.16;67.51
20942;BME280;10630;53.734;10.282;2023-01-26T04:25:16;101892.78;;;6.05;66.01
20942;BME280;10630;53.734;10.282;2023-01-26T04:27:42;101894.72;;;6.40;65.97
20942;BME280;10630;53.734;10.282;2023-01-26T04:30:10;101884.28;;;6.74;65.39
20942;BME280;10630;53.734;10.282;2023-01-26T04:32:37;101879.97;;;6.97;64.36
20942;BME280;10630;53.734;10.282;2023-01-26T04:35:04;101882.84;;;6.32;65.73
20942;BME280;10630;53.734;10.282;2023-01-26T04:37:32;101878.22;;;6.85;64.81
20942;BME280;10630;53.734;10.282;2023-01-26T04:39:59;101882.16;;;6.79;64.13
20942;BME280;10630;53.734;10.282;2023-01-26T04:42:25;101882.91;;;6.57;65.47
20942;BME280;10630;53.734;10.282;2023-01-26T04:44:52;101880.03;;;6.84;64.72
20942;BME280;10630;53.734;10.282;2023-01-26T04:47:19;101873.31;;;6.43;65.00
20942;BME280;10630;53.734;10.282;2023-01-26T04:49:46;101865.84;;;6.85;65.00
20942;BME280;10630;53.734;10.282;2023-01-26T04:52:13;101859.13;;;6.92;64.02
20942;BME280;10630;53.734;10.282;2023-01-26T04:54:40;101862.97;;;6.64;64.88
20942;BME280;10630;53.734;10.282;2023-01-26T04:57:07;101861.06;;;6.66;64.16
20942;BME280;10630;53.734;10.282;2023-01-26T04:59:33;101863.03;;;6.51;65.28
20942;BME280;10630;53.734;10.282;2023-01-26T05:02:00;101857.59;;;6.28;65.26
20942;BME280;10630;53.734;10.282;2023-01-26T05:04:26;101849.34;;;6.33;66.45
20942;BME280;10630;53.734;10.282;2023-01-26T05:06:56;101854.06;;;6.41;66.62
20942;BME280;10630;53.734;10.282;2023-01-26T05:09:23;101861.56;;;6.47;65.93
20942;BME280;10630;53.734;10.282;2023-01-26T05:11:50;101861.47;;;6.11;66.69
20942;BME280;10630;53.734;10.282;2023-01-26T05:14:20;101855.25;;;6.37;66.81
20942;BME280;10630;53.734;10.282;2023-01-26T05:16:46;101858.31;;;6.68;65.41
20942;BME280;10630;53.734;10.282;2023-01-26T05:19:13;101858.63;;;6.39;66.24
20942;BME280;10630;53.734;10.282;2023-01-26T05:21:41;101851.00;;;5.97;66.39
20942;BME280;10630;53.734;10.282;2023-01-26T05:24:09;101853.41;;;6.50;66.79
20942;BME280;10630;53.734;10.282;2023-01-26T05:26:37;101846.03;;;6.67;65.62
20942;BME280;10630;53.734;10.282;2023-01-26T05:29:16;101853.44;;;6.37;66.02
20942;BME280;10630;53.734;10.282;2023-01-26T05:31:43;101858.31;;;6.68;65.62
20942;BME280;10630;53.734;10.282;2023-01-26T05:34:09;101845.47;;;6.50;65.93
20942;BME280;10630;53.734;10.282;2023-01-26T05:36:50;101846.50;;;6.72;65.29
20942;BME280;10630;53.734;10.282;2023-01-26T05:39:16;101838.91;;;6.91;65.08
20942;BME280;10630;53.734;10.282;2023-01-26T05:44:13;101849.50;;;6.91;64.46
20942;BME280;10630;53.734;10.282;2023-01-26T05:46:41;101851.19;;;6.92;64.17
20942;BME280;10630;53.734;10.282;2023-01-26T05:49:07;101846.91;;;7.25;63.29
20942;BME280;10630;53.734;10.282;2023-01-26T05:51:34;101847.81;;;6.90;64.01
20942;BME280;10630;53.734;10.282;2023-01-26T05:54:00;101854.91;;;6.65;64.34
20942;BME280;10630;53.734;10.282;2023-01-26T05:56:26;101849.06;;;6.49;64.82
20942;BME280;10630;53.734;10.282;2023-01-26T05:58:53;101855.38;;;6.59;65.36
20942;BME280;10630;53.734;10.282;2023-01-26T06:01:19;101865.16;;;6.46;65.64
20942;BME280;10630;53.734;10.282;2023-01-26T06:03:46;101861.84;;;6.79;65.72
20942;BME280;10630;53.734;10.282;2023-01-26T06:06:12;101862.91;;;6.77;65.82
20942;BME280;10630;53.734;10.282;2023-01-26T06:08:38;101859.22;;;6.91;65.26
20942;BME280;10630;53.734;10.282;2023-01-26T06:11:05;101856.81;;;6.63;65.11
20942;BME280;10630;53.734;10.282;2023-01-26T06:13:31;101856.22;;;6.84;66.05
20942;BME280;10630;53.734;10.282;2023-01-26T06:16:00;101864.69;;;7.01;64.59
20942;BME280;10630;53.734;10.282;2023-01-26T06:18:27;101863.34;;;6.71;65.37
20942;BME280;10630;53.734;10.282;2023-01-26T06:20:57;101860.63;;;7.08;64.50
20942;BME280;10630;53.734;10.282;2023-01-26T06:23:23;101857.47;;;7.03;64.11
20942;BME280;10630;53.734;10.282;2023-01-26T06:25:49;101860.09;;;7.03;64.56
20942;BME280;10630;53.734;10.282;2023-01-26T06:28:17;101862.63;;;6.69;65.40
20942;BME280;10630;53.734;10.282;2023-01-26T06:30:45;101866.72;;;6.73;65.24
20942;BME280;10630;53.734;10.282;2023-01-26T06:33:11;101865.66;;;7.00;64.71
20942;BME280;10630;53.734;10.282;2023-01-26T06:35:38;101867.41;;;6.63;65.31
20942;BME280;10630;53.734;10.282;2023-01-26T06:38:04;101862.84;;;6.65;65.83
20942;BME280;10630;53.734;10.282;2023-01-26T06:40:30;101872.03;;;6.73;65.53
20942;BME280;10630;53.734;10.282;2023-01-26T06:42:57;101875.09;;;7.15;64.87
20942;BME280;10630;53.734;10.282;2023-01-26T06:45:23;101874.94;;;6.81;64.12
20942;BME280;10630;53.734;10.282;2023-01-26T06:47:50;101874.16;;;6.68;64.99
20942;BME280;10630;53.734;10.282;2023-01-26T06:50:20;101879.78;;;6.87;65.53
20942;BME280;10630;53.734;10.282;2023-01-26T06:52:54;101875.00;;;6.92;65.56
20942;BME280;10630;53.734;10.282;2023-01-26T06:55:21;101874.53;;;6.99;64.55
20942;BME280;10630;53.734;10.282;2023-01-26T06:57:49;101874.28;;;6.90;65.95
20942;BME280;10630;53.734;10.282;2023-01-26T07:00:15;101875.00;;;6.68;65.77
20942;BME280;10630;53.734;10.282;2023-01-26T07:02:41;101871.66;;;6.66;65.98
20942;BME280;10630;53.734;10.282;2023-01-26T07:05:08;101872.91;;;6.36;66.28
20942;BME280;10630;53.734;10.282;2023-01-26T07:07:37;101880.72;;;6.86;66.55
20942;BME280;10630;53.734;10.282;2023-01-26T07:10:03;101891.59;;;7.30;65.42
20942;BME280;10630;53.734;10.282;2023-01-26T07:12:43;101886.44;;;7.40;64.48
20942;BME280;10630;53.734;10.282;2023-01-26T07:15:10;101887.66;;;7.00;64.40
20942;BME280;10630;53.734;10.282;2023-01-26T07:17:37;101882.53;;;6.86;65.17
20942;BME280;10630;53.734;10.282;2023-01-26T07:20:04;101880.34;;;6.55;66.40
20942;BME280;10630;53.734;10.282;2023-01-26T07:22:31;101887.50;;;6.90;66.01
20942;BME280;10630;53.734;10.282;2023-01-26T07:24:57;101882.78;;;7.18;65.40
20942;BME280;10630;53.734;10.282;2023-01-26T07:27:23;101888.28;;;6.55;66.70
20942;BME280;10630;53.734;10.282;2023-01-26T07:29:50;101875.00;;;6.68;66.73
20942;BME280;10630;53.734;10.282;2023-01-26T07:32:16;101870.41;;;6.94;66.42
20942;BME280;10630;53.734;10.282;2023-01-26T07:34:43;101877.59;;;6.81;66.56
20942;BME280;10630;53.734;10.282;2023-01-26T07:37:09;101877.84;;;6.78;67.01
20942;BME280;10630;53.734;10.282;2023-01-26T07:39:35;101882.66;;;6.84;66.63
20942;BME280;10630;53.734;10.282;2023-01-26T07:42:02;101881.25;;;6.91;67.06
20942;BME280;10630;53.734;10.282;2023-01-26T07:44:28;101884.53;;;7.06;66.59
20942;BME280;10630;53.734;10.282;2023-01-26T07:46:54;101886.22;;;6.96;66.61
20942;BME280;10630;53.734;10.282;2023-01-26T07:49:21;101890.41;;;7.34;65.76
20942;BME280;10630;53.734;10.282;2023-01-26T07:51:47;101891.22;;;7.23;65.46
20942;BME280;10630;53.734;10.282;2023-01-26T07:54:13;101882.00;;;7.40;65.02
20942;BME280;10630;53.734;10.282;2023-01-26T07:56:40;101881.03;;;7.41;65.18
20942;BME280;10630;53.734;10.282;2023-01-26T07:59:08;101878.91;;;7.58;65.02
20942;BME280;10630;53.734;10.282;2023-01-26T08:01:35;101878.66;;;7.61;64.52
20942;BME280;10630;53.734;10.282;2023-01-26T08:04:01;101876.56;;;7.42;64.39
20942;BME280;10630;53.734;10.282;2023-01-26T08:06:28;101886.16;;;7.20;65.57
20942;BME280;10630;53.734;10.282;2023-01-26T08:08:54;101882.47;;;7.34;65.53
20942;BME280;10630;53.734;10.282;2023-01-26T08:11:21;101889.38;;;6.77;66.33
20942;BME280;10630;53.734;10.282;2023-01-26T08:13:49;101891.47;;;7.20;66.36
20942;BME280;10630;53.734;10.282;2023-01-26T08:16:15;101891.22;;;6.63;67.35
20942;BME280;10630;53.734;10.282;2023-01-26T08:18:42;101889.50;;;7.58;66.44
20942;BME280;10630;53.734;10.282;2023-01-26T08:21:10;101896.09;;;7.52;65.46
20942;BME280;10630;53.734;10.282;2023-01-26T08:23:37;101902.91;;;6.96;65.76
20942;BME280;10630;53.734;10.282;2023-01-26T08:26:04;101913.16;;;6.53;68.03
20942;BME280;10630;53.734;10.282;2023-01-26T08:28:31;101908.06;;;6.25;70.31
20942;BME280;10630;53.734;10.282;2023-01-26T08:31:05;101902.25;;;7.06;68.08
20942;BME280;10630;53.734;10.282;2023-01-26T08:33:32;101910.94;;;6.59;70.24
20942;BME280;10630;53.734;10.282;2023-01-26T08:36:02;101916.09;;;7.09;69.18
20942;BME280;10630;53.734;10.282;2023-01-26T08:38:33;101912.22;;;7.49;66.99
20942;BME280;10630;53.734;10.282;2023-01-26T08:41:00;101913.44;;;7.56;66.62
20942;BME280;10630;53.734;10.282;2023-01-26T08:43:27;101916.78;;;7.36;65.61
20942;BME280;10630;53.734;10.282;2023-01-26T08:45:54;101919.22;;;7.50;65.54
20942;BME280;10630;53.734;10.282;2023-01-26T08:48:20;101912.97;;;7.63;66.39
20942;BME280;10630;53.734;10.282;2023-01-26T08:50:47;101912.97;;;7.63;65.64
20942;BME280;10630;53.734;10.282;2023-01-26T08:53:13;101921.69;;;7.76;65.13
20942;BME280;10630;53.734;10.282;2023-01-26T08:55:39;101915.06;;;7.93;64.63
20942;BME280;10630;53.734;10.282;2023-01-26T08:58:06;101914.94;;;8.06;63.94
20942;BME280;10630;53.734;10.282;2023-01-26T09:00:32;101913.03;;;7.85;64.65
20942;BME280;10630;53.734;10.282;2023-01-26T09:03:03;101910.47;;;7.95;64.58
20942;BME280;10630;53.734;10.282;2023-01-26T09:05:30;101908.94;;;7.92;64.72
20942;BME280;10630;53.734;10.282;2023-01-26T09:07:57;101899.75;;;7.97;64.74
20942;BME280;10630;53.734;10.282;2023-01-26T09:10:24;101901.31;;;7.88;64.38
20942;BME280;10630;53.734;10.282;2023-01-26T09:12:50;101901.53;;;7.62;65.77
20942;BME280;10630;53.734;10.282;2023-01-26T09:15:17;101892.16;;;7.92;64.96
20942;BME280;10630;53.734;10.282;2023-01-26T09:17:43;101893.97;;;8.03;64.53
20942;BME280;10630;53.734;10.282;2023-01-26T09:20:10;101904.00;;;7.29;64.38
20942;BME280;10630;53.734;10.282;2023-01-26T09:22:37;101901.44;;;7.28;67.51
20942;BME280;10630;53.734;10.282;2023-01-26T09:25:03;101899.72;;;6.56;68.67
20942;BME280;10630;53.734;10.282;2023-01-26T09:27:30;101900.34;;;7.19;68.57
20942;BME280;10630;53.734;10.282;2023-01-26T09:29:56;101902.25;;;6.57;70.45
20942;BME280;10630;53.734;10.282;2023-01-26T09:32:22;101893.97;;;7.22;69.71
20942;BME280;10630;53.734;10.282;2023-01-26T09:34:49;101902.19;;;6.94;69.59
20942;BME280;10630;53.734;10.282;2023-01-26T09:37:15;101894.97;;;6.96;71.18
20942;BME280;10630;53.734;10.282;2023-01-26T09:39:42;101894.38;;;7.40;69.48
20942;BME280;10630;53.734;10.282;2023-01-26T09:44:44;101885.75;;;7.72;66.58
20942;BME280;10630;53.734;10.282;2023-01-26T09:47:14;101884.09;;;7.82;66.59
20942;BME280;10630;53.734;10.282;2023-01-26T09:49:50;101896.69;;;6.36;66.69
20942;BME280;10630;53.734;10.282;2023-01-26T09:52:26;101895.44;;;7.26;69.50
20942;BME280;10630;53.734;10.282;2023-01-26T09:54:57;101878.78;;;7.82;67.66
20942;BME280;10630;53.734;10.282;2023-01-26T09:57:59;101878.97;;;7.34;68.28
20942;BME280;10630;53.734;10.282;2023-01-26T10:08:02;101879.69;;;7.36;68.02
20942;BME280;10630;53.734;10.282;2023-01-26T10:10:31;101890.00;;;8.08;66.70
20942;BME280;10630;53.734;10.282;2023-01-26T10:12:59;101878.31;;;8.00;65.88
20942;BME280;10630;53.734;10.282;2023-01-26T10:15:28;101880.94;;;7.88;65.89
20942;BME280;10630;53.734;10.282;2023-01-26T10:17:58;101880.59;;;7.93;66.21
20942;BME280;10630;53.734;10.282;2023-01-26T10:20:30;101887.09;;;7.78;65.89
20942;BME280;10630;53.734;10.282;2023-01-26T10:22:58;101886.50;;;7.85;67.01
20942;BME280;10630;53.734;10.282;2023-01-26T10:27:52;101893.63;;;7.15;69.73
20942;BME280;10630;53.734;10.282;2023-01-26T10:30:19;101875.41;;;8.14;67.98
20942;BME280;10630;53.734;10.282;2023-01-26T10:32:47;101871.53;;;7.96;67.04
20942;BME280;10630;53.734;10.282;2023-01-26T10:35:17;101874.91;;;8.09;66.95
20942;BME280;10630;53.734;10.282;2023-01-26T10:37:45;101876.56;;;8.44;65.84
20942;BME280;10630;53.734;10.282;2023-01-26T10:40:12;101864.25;;;8.43;65.11
20942;BME280;10630;53.734;10.282;2023-01-26T10:42:39;101865.03;;;8.11;66.82
20942;BME280;10630;53.734;10.282;2023-01-26T10:50:33;101859.84;;;8.10;65.55
20942;BME280;10630;53.734;10.282;2023-01-26T10:53:00;101853.94;;;7.95;67.39
20942;BME280;10630;53.734;10.282;2023-01-26T10:55:27;101865.69;;;8.47;66.15
20942;BME280;10630;53.734;10.282;2023-01-26T10:57:54;101866.22;;;8.74;64.76
20942;BME280;10630;53.734;10.282;2023-01-26T11:02:48;101865.22;;;8.53;66.00
20942;BME280;10630;53.734;10.282;2023-01-26T11:05:22;101871.09;;;8.46;65.90
20942;BME280;10630;53.734;10.282;2023-01-26T11:07:50;101864.97;;;8.57;65.10
20942;BME280;10630;53.734;10.282;2023-01-26T11:12:46;101875.13;;;7.49;69.56
20942;BME280;10630;53.734;10.282;2023-01-26T11:15:17;101861.88;;;8.29;68.39
20942;BME280;10630;53.734;10.282;2023-01-26T11:17:47;101864.06;;;7.78;68.96
20942;BME280;10630;53.734;10.282;2023-01-26T11:23:00;101862.56;;;8.42;66.94
20942;BME280;10630;53.734;10.282;2023-01-26T11:25:31;101865.91;;;8.67;66.28
20942;BME280;10630;53.734;10.282;2023-01-26T11:31:03;101856.53;;;8.40;67.76
20942;BME280;10630;53.734;10.282;2023-01-26T11:36:02;101854.38;;;8.34;67.12
20942;BME280;10630;53.734;10.282;2023-01-26T11:38:35;101850.91;;;8.77;67.10
20942;BME280;10630;53.734;10.282;2023-01-26T11:43:48;101844.34;;;8.81;67.50
20942;BME280;10630;53.734;10.282;2023-01-26T11:54:02;101840.50;;;8.42;69.03
20942;BME280;10630;53.734;10.282;2023-01-26T11:59:12;101839.69;;;8.95;67.21
20942;BME280;10630;53.734;10.282;2023-01-26T12:01:47;101834.34;;;8.52;67.74
20942;BME280;10630;53.734;10.282;2023-01-26T12:04:17;101827.47;;;8.50;68.77
20942;BME280;10630;53.734;10.282;2023-01-26T12:06:45;101838.97;;;8.28;69.02
20942;BME280;10630;53.734;10.282;2023-01-26T12:09:18;101821.94;;;9.16;67.90
20942;BME280;10630;53.734;10.282;2023-01-26T12:12:03;101825.19;;;8.34;67.32
20942;BME280;10630;53.734;10.282;2023-01-26T12:14:45;101825.91;;;8.47;70.36
20942;BME280;10630;53.734;10.282;2023-01-26T12:22:31;101810.44;;;8.85;70.12
20942;BME280;10630;53.734;10.282;2023-01-26T12:28:10;101807.56;;;8.77;69.66
20942;BME280;10630;53.734;10.282;2023-01-26T12:32:58;101804.19;;;7.75;73.40
20942;BME280;10630;53.734;10.282;2023-01-26T12:40:50;101789.63;;;7.47;76.18
20942;BME280;10630;53.734;10.282;2023-01-26T12:43:21;101782.25;;;8.51;76.58
20942;BME280;10630;53.734;10.282;2023-01-26T12:45:53;101786.72;;;7.96;75.82
20942;BME280;10630;53.734;10.282;2023-01-26T12:48:22;101780.75;;;7.37;76.81
20942;BME280;10630;53.734;10.282;2023-01-26T12:50:57;101782.69;;;7.46;79.48
20942;BME280;10630;53.734;10.282;2023-01-26T12:53:28;101783.50;;;7.69;77.28
20942;BME280;10630;53.734;10.282;2023-01-26T12:58:28;101788.06;;;7.22;84.03
20942;BME280;10630;53.734;10.282;2023-01-26T13:03:36;101795.03;;;7.11;81.94
20942;BME280;10630;53.734;10.282;2023-01-26T13:11:04;101789.97;;;6.13;91.03
20942;BME280;10630;53.734;10.282;2023-01-26T13:18:53;101788.09;;;5.89;92.40
20942;BME280;10630;53.734;10.282;2023-01-26T13:26:44;101787.34;;;6.73;90.20
20942;BME280;10630;53.734;10.282;2023-01-26T13:29:25;101783.19;;;6.46;96.68
20942;BME280;10630;53.734;10.282;2023-01-26T13:31:59;101782.16;;;5.98;96.14
20942;BME280;10630;53.734;10.282;2023-01-26T13:34:27;101788.31;;;5.99;100.00
20942;BME280;10630;53.734;10.282;2023-01-26T13:36:55;101776.00;;;6.11;100.00
20942;BME280;10630;53.734;10.282;2023-01-26T13:39:27;101786.94;;;5.93;98.85
20942;BME280;10630;53.734;10.282;2023-01-26T13:41:54;101786.53;;;5.99;100.00
20942;BME280;10630;53.734;10.282;2023-01-26T13:44:21;101784.91;;;6.58;96.71
20942;BME280;10630;53.734;10.282;2023-01-26T13:46:53;101783.91;;;6.24;96.63
20942;BME280;10630;53.734;10.282;2023-01-26T13:49:26;101780.22;;;7.09;94.49
20942;BME280;10630;53.734;10.282;2023-01-26T13:51:53;101797.47;;;6.79;91.58
20942;BME280;10630;53.734;10.282;2023-01-26T13:54:19;101807.16;;;5.81;95.78
20942;BME280;10630;53.734;10.282;2023-01-26T13:57:00;101806.91;;;5.97;98.35
20942;BME280;10630;53.734;10.282;2023-01-26T13:59:26;101810.22;;;6.25;95.06
20942;BME280;10630;53.734;10.282;2023-01-26T14:01:53;101818.41;;;5.20;96.54
20942;BME280;10630;53.734;10.282;2023-01-26T14:04:21;101822.41;;;5.65;100.00
20942;BME280;10630;53.734;10.282;2023-01-26T14:07:04;101822.59;;;5.75;100.00
20942;BME280;10630;53.734;10.282;2023-01-26T14:09:32;101819.06;;;6.13;100.00
20942;BME280;10630;53.734;10.282;2023-01-26T14:12:01;101811.38;;;5.84;99.41
20942;BME280;10630;53.734;10.282;2023-01-26T14:14:30;101817.69;;;6.07;98.83
20942;BME280;10630;53.734;10.282;2023-01-26T14:16:58;101825.38;;;6.23;100.00
20942;BME280;10630;53.734;10.282;2023-01-26T14:19:25;101830.38;;;5.89;99.85
20942;BME280;10630;53.734;10.282;2023-01-26T14:21:52;101836.53;;;5.25;100.00
20942;BME280;10630;53.734;10.282;2023-01-26T14:24:30;101832.66;;;5.31;100.00
20942;BME280;10630;53.734;10.282;2023-01-26T14:26:57;101835.28;;;5.31;100.00
20942;BME280;10630;53.734;10.282;2023-01-26T14:29:27;101830.97;;;5.30;100.00
20942;BME280;10630;53.734;10.282;2023-01-26T14:31:55;101842.78;;;5.50;100.00
20942;BME280;10630;53.734;10.282;2023-01-26T14:34:25;101847.09;;;5.25;100.00